createdAt,value
2023-03-17T00:01:12.007Z,9.53
2023-03-17T00:03:41.726Z,10.40
2023-03-17T00:06:29.733Z,11.98
2023-03-17T00:08:57.589Z,11.00
2023-03-17T00:11:26.546Z,10.65
2023-03-17T00:13:53.158Z,12.80
2023-03-17T00:16:23.287Z,10.82
2023-03-17T00:18:51.254Z,11.00
2023-03-17T00:21:24.948Z,10.18
2023-03-17T00:23:51.877Z,9.63
2023-03-17T00:26:20.287Z,9.60
2023-03-17T00:28:47.361Z,10.55
2023-03-17T00:31:21.308Z,11.10
2023-03-17T00:33:50.426Z,9.57
2023-03-17T00:36:20.037Z,11.63
2023-03-17T00:38:47.272Z,10.43
2023-03-17T00:41:14.273Z,11.63
2023-03-17T00:43:41.361Z,10.02
2023-03-17T00:46:16.783Z,9.65
2023-03-17T00:48:45.186Z,10.65
2023-03-17T00:51:12.766Z,10.13
2023-03-17T00:53:39.829Z,10.23
2023-03-17T00:56:14.449Z,9.07
2023-03-17T00:58:42.126Z,10.32
2023-03-17T01:01:09.687Z,11.10
2023-03-17T01:03:37.300Z,9.57
2023-03-17T01:06:06.343Z,12.95
2023-03-17T01:08:33.819Z,29.33
2023-03-17T01:11:00.546Z,12.05
2023-03-17T01:13:27.538Z,11.45
2023-03-17T01:15:56.497Z,11.60
2023-03-17T01:18:23.589Z,12.50
2023-03-17T01:20:51.358Z,12.75
2023-03-17T01:23:18.346Z,11.30
2023-03-17T01:25:45.568Z,12.15
2023-03-17T01:28:17.961Z,8.70
2023-03-17T01:30:45.501Z,8.93
2023-03-17T01:33:13.337Z,10.20
2023-03-17T01:35:41.437Z,11.75
2023-03-17T01:38:08.662Z,29.85
2023-03-17T01:40:42.478Z,14.83
2023-03-17T01:43:09.025Z,12.10
2023-03-17T01:46:13.111Z,11.13
2023-03-17T01:49:01.082Z,10.63
2023-03-17T01:51:52.544Z,9.48
2023-03-17T01:54:30.598Z,11.00
2023-03-17T01:57:13.618Z,10.05
2023-03-17T01:59:46.487Z,10.32
2023-03-17T02:02:18.657Z,10.32
2023-03-17T02:04:45.346Z,11.82
2023-03-17T02:07:12.567Z,12.20
2023-03-17T02:09:40.045Z,13.25
2023-03-17T02:12:07.801Z,11.48
2023-03-17T02:14:34.581Z,9.88
2023-03-17T02:17:01.521Z,11.38
2023-03-17T02:19:28.572Z,12.40
2023-03-17T02:21:59.955Z,9.95
2023-03-17T02:24:37.663Z,10.55
2023-03-17T02:27:14.657Z,11.50
2023-03-17T02:29:42.329Z,11.18
2023-03-17T02:32:10.019Z,10.63
2023-03-17T02:34:37.370Z,13.13
2023-03-17T02:37:04.641Z,9.60
2023-03-17T02:39:32.196Z,9.15
2023-03-17T02:41:59.438Z,10.80
2023-03-17T02:44:27.100Z,9.47
2023-03-17T02:46:53.894Z,9.75
2023-03-17T02:49:20.702Z,10.00
2023-03-17T02:51:48.111Z,13.20
2023-03-17T02:54:14.914Z,10.23
2023-03-17T02:56:41.941Z,10.53
2023-03-17T02:59:09.288Z,10.82
2023-03-17T03:01:36.018Z,9.85
2023-03-17T03:04:03.973Z,10.70
2023-03-17T03:06:31.693Z,10.38
2023-03-17T03:08:58.409Z,11.63
2023-03-17T03:11:25.393Z,10.32
2023-03-17T03:13:52.252Z,9.65
2023-03-17T03:16:18.931Z,9.85
2023-03-17T03:18:45.720Z,11.57
2023-03-17T03:21:12.356Z,10.13
2023-03-17T03:23:39.000Z,10.48
2023-03-17T03:26:05.820Z,15.77
2023-03-17T03:28:32.524Z,14.10
2023-03-17T03:30:59.309Z,16.40
2023-03-17T03:33:26.203Z,15.10
2023-03-17T03:35:53.201Z,16.95
2023-03-17T03:38:19.955Z,20.48
2023-03-17T03:40:46.849Z,14.93
2023-03-17T03:43:22.907Z,14.45
2023-03-17T03:45:51.425Z,15.47
2023-03-17T03:48:18.548Z,15.98
2023-03-17T03:50:45.840Z,14.38
2023-03-17T03:53:12.907Z,12.50
2023-03-17T03:55:39.760Z,12.93
2023-03-17T03:58:06.843Z,13.17
2023-03-17T04:00:33.820Z,12.60
2023-03-17T04:03:01.496Z,10.73
2023-03-17T04:05:28.187Z,9.93
2023-03-17T04:07:55.014Z,9.77
2023-03-17T04:10:21.654Z,12.43
2023-03-17T04:12:48.355Z,11.65
2023-03-17T04:15:16.857Z,10.65
2023-03-17T04:17:44.196Z,10.13
2023-03-17T04:20:13.157Z,11.38
2023-03-17T04:22:41.718Z,8.90
2023-03-17T04:25:10.312Z,8.25
2023-03-17T04:27:37.476Z,9.63
2023-03-17T04:30:05.441Z,9.43
2023-03-17T04:32:32.184Z,10.90
2023-03-17T04:34:58.979Z,8.67
2023-03-17T04:37:26.351Z,10.43
2023-03-17T04:39:53.446Z,10.88
2023-03-17T04:42:20.169Z,10.52
2023-03-17T04:44:47.016Z,10.98
2023-03-17T04:47:13.630Z,9.17
2023-03-17T04:49:40.494Z,11.10
2023-03-17T04:52:07.159Z,11.40
2023-03-17T04:54:33.790Z,16.77
2023-03-17T04:57:00.941Z,12.10
2023-03-17T04:59:27.587Z,15.10
2023-03-17T05:01:54.261Z,15.00
2023-03-17T05:04:31.334Z,11.50
2023-03-17T05:06:58.670Z,14.40
2023-03-17T05:09:26.838Z,10.13
2023-03-17T05:11:53.567Z,11.10
2023-03-17T05:14:20.814Z,10.98
2023-03-17T05:16:48.489Z,9.88
2023-03-17T05:19:16.487Z,11.20
2023-03-17T05:21:43.702Z,10.88
2023-03-17T05:24:10.426Z,10.47
2023-03-17T05:26:37.318Z,10.00
2023-03-17T05:29:04.603Z,10.40
2023-03-17T05:31:31.760Z,12.27
2023-03-17T05:33:58.798Z,13.70
2023-03-17T05:36:25.613Z,11.87
2023-03-17T05:38:52.444Z,15.00
2023-03-17T05:41:19.421Z,11.93
2023-03-17T05:43:46.784Z,11.15
2023-03-17T05:46:13.818Z,11.07
2023-03-17T05:48:40.790Z,12.27
2023-03-17T05:51:07.456Z,12.82
2023-03-17T05:53:35.936Z,12.02
2023-03-17T05:56:03.060Z,10.48
2023-03-17T05:58:29.918Z,10.93
2023-03-17T06:00:56.939Z,13.53
2023-03-17T06:03:23.631Z,12.50
2023-03-17T06:05:50.354Z,14.60
2023-03-17T06:08:17.062Z,16.17
2023-03-17T06:10:43.987Z,13.68
2023-03-17T06:13:11.670Z,10.80
2023-03-17T06:15:38.513Z,11.75
2023-03-17T06:18:05.670Z,19.15
2023-03-17T06:20:33.284Z,32.00
2023-03-17T06:23:04.905Z,34.95
2023-03-17T06:25:33.694Z,37.13
2023-03-17T06:28:02.816Z,23.45
2023-03-17T06:30:31.405Z,18.33
2023-03-17T06:32:58.569Z,17.92
2023-03-17T06:35:25.356Z,14.40
2023-03-17T06:37:52.297Z,15.80
2023-03-17T06:40:18.962Z,12.60
2023-03-17T06:42:45.705Z,14.95
2023-03-17T06:45:13.104Z,17.38
2023-03-17T06:47:39.892Z,15.45
2023-03-17T06:50:12.284Z,11.13
2023-03-17T06:52:39.778Z,15.23
2023-03-17T06:55:07.187Z,10.88
2023-03-17T06:57:34.348Z,10.60
2023-03-17T07:00:01.216Z,11.18
2023-03-17T07:02:28.061Z,11.30
2023-03-17T07:04:54.891Z,10.55
2023-03-17T07:07:21.641Z,15.32
2023-03-17T07:09:48.276Z,10.48
2023-03-17T07:12:15.721Z,13.32
2023-03-17T07:14:42.384Z,11.37
2023-03-17T07:17:14.544Z,11.98
2023-03-17T07:19:42.316Z,10.52
2023-03-17T07:22:11.898Z,10.35
2023-03-17T07:24:39.596Z,11.82
2023-03-17T07:27:06.428Z,12.70
2023-03-17T07:29:34.054Z,12.38
2023-03-17T07:32:02.073Z,11.55
2023-03-17T07:34:28.983Z,12.63
2023-03-17T07:36:55.621Z,11.40
2023-03-17T07:39:22.601Z,13.23
2023-03-17T07:41:55.024Z,17.40
2023-03-17T07:44:22.709Z,12.73
2023-03-17T07:46:50.143Z,11.02
2023-03-17T07:49:18.210Z,16.02
2023-03-17T07:51:47.563Z,18.10
2023-03-17T07:54:15.870Z,13.40
2023-03-17T07:56:42.613Z,12.25
2023-03-17T07:59:10.868Z,14.93
2023-03-17T08:01:38.386Z,11.40
2023-03-17T08:04:07.395Z,11.70
2023-03-17T08:06:34.217Z,11.43
2023-03-17T08:09:01.025Z,10.52
2023-03-17T08:11:29.450Z,12.95
2023-03-17T08:13:56.365Z,10.23
2023-03-17T08:16:23.186Z,10.50
2023-03-17T08:18:49.975Z,18.20
2023-03-17T08:21:16.804Z,10.00
2023-03-17T08:23:43.861Z,11.38
2023-03-17T08:26:10.673Z,11.30
2023-03-17T08:28:37.532Z,9.60
2023-03-17T08:31:22.811Z,12.27
2023-03-17T08:33:52.700Z,8.35
2023-03-17T08:36:20.963Z,10.65
2023-03-17T08:38:48.378Z,11.00
2023-03-17T08:41:18.292Z,21.40
2023-03-17T08:43:46.333Z,11.15
2023-03-17T08:46:14.713Z,10.15
2023-03-17T08:48:41.443Z,8.82
2023-03-17T08:51:08.877Z,7.93
2023-03-17T08:53:36.192Z,7.77
2023-03-17T08:56:04.997Z,8.75
2023-03-17T08:58:31.594Z,8.48
2023-03-17T09:01:00.503Z,7.78
2023-03-17T09:03:28.124Z,8.93
2023-03-17T09:05:55.105Z,10.33
2023-03-17T09:08:21.989Z,10.48
2023-03-17T09:10:49.617Z,10.85
2023-03-17T09:13:16.332Z,7.75
2023-03-17T09:15:43.092Z,8.98
2023-03-17T09:18:10.512Z,7.47
2023-03-17T09:20:37.243Z,8.20
2023-03-17T09:23:08.790Z,7.25
2023-03-17T09:25:37.469Z,8.02
2023-03-17T09:28:05.181Z,10.48
2023-03-17T09:30:32.840Z,8.60
2023-03-17T09:33:00.680Z,6.93
2023-03-17T09:35:28.294Z,6.35
2023-03-17T09:37:55.638Z,8.27
2023-03-17T09:40:31.672Z,7.60
2023-03-17T09:43:19.408Z,5.87
2023-03-17T09:45:46.251Z,6.88
2023-03-17T09:48:24.281Z,5.60
2023-03-17T09:51:07.973Z,6.07
2023-03-17T09:53:36.281Z,5.30
2023-03-17T09:56:11.666Z,5.87
2023-03-17T09:58:41.720Z,5.93
2023-03-17T10:01:10.398Z,6.32
2023-03-17T10:03:37.488Z,8.13
2023-03-17T10:06:25.149Z,5.43
2023-03-17T10:09:00.609Z,8.87
2023-03-17T10:11:38.461Z,7.13
2023-03-17T10:14:24.709Z,5.22
2023-03-17T10:17:03.604Z,4.60
2023-03-17T10:19:35.243Z,5.90
2023-03-17T10:22:15.930Z,5.73
2023-03-17T10:24:48.904Z,6.03
2023-03-17T10:27:17.288Z,5.50
2023-03-17T10:29:45.905Z,6.28
2023-03-17T10:32:14.693Z,6.95
2023-03-17T10:34:42.357Z,5.93
2023-03-17T10:37:17.924Z,5.00
2023-03-17T10:39:47.443Z,4.90
2023-03-17T10:42:21.715Z,6.43
2023-03-17T10:45:29.782Z,7.03
2023-03-17T10:47:58.450Z,5.00
2023-03-17T10:50:34.326Z,6.45
2023-03-17T10:53:10.880Z,5.22
2023-03-17T10:55:37.455Z,7.60
2023-03-17T10:58:07.861Z,5.18
2023-03-17T11:00:38.455Z,6.23
2023-03-17T11:03:19.326Z,5.00
2023-03-17T11:06:13.621Z,5.25
2023-03-17T11:08:42.231Z,5.00
2023-03-17T11:11:23.125Z,6.35
2023-03-17T11:13:49.767Z,5.30
2023-03-17T11:16:24.166Z,4.78
2023-03-17T11:18:57.424Z,5.40
2023-03-17T11:21:30.902Z,7.88
2023-03-17T11:24:09.702Z,5.38
2023-03-17T11:26:53.558Z,5.40
2023-03-17T11:29:34.877Z,6.93
2023-03-17T11:32:19.736Z,4.55
2023-03-17T11:35:10.550Z,5.93
2023-03-17T11:38:15.757Z,5.38
2023-03-17T11:40:57.653Z,5.23
2023-03-17T11:43:55.417Z,4.93
2023-03-17T11:46:36.169Z,4.50
2023-03-17T11:49:14.657Z,4.07
2023-03-17T11:52:12.228Z,4.88
2023-03-17T11:54:54.377Z,4.07
2023-03-17T11:57:30.107Z,4.00
2023-03-17T12:00:32.982Z,4.07
2023-03-17T12:03:05.648Z,5.90
2023-03-17T12:05:33.924Z,5.43
2023-03-17T12:08:11.968Z,4.53
2023-03-17T12:10:52.204Z,5.15
2023-03-17T12:13:25.064Z,3.95
2023-03-17T12:15:57.138Z,4.32
2023-03-17T12:18:32.847Z,3.63
2023-03-17T12:21:21.004Z,6.13
2023-03-17T12:23:50.249Z,3.17
2023-03-17T12:26:28.268Z,4.07
2023-03-17T12:29:16.654Z,4.38
2023-03-17T12:31:58.280Z,3.42
2023-03-17T12:34:51.859Z,3.30
2023-03-17T12:37:19.430Z,4.07
2023-03-17T12:39:55.566Z,3.85
2023-03-17T12:42:37.637Z,3.65
2023-03-17T12:45:26.303Z,2.70
2023-03-17T12:48:02.815Z,3.37
2023-03-17T12:50:50.741Z,2.90
2023-03-17T12:53:44.889Z,3.40
2023-03-17T12:56:21.997Z,5.60
2023-03-17T12:58:51.151Z,4.68
2023-03-17T13:01:32.805Z,2.80
2023-03-17T13:04:26.456Z,3.20
2023-03-17T13:06:57.435Z,4.68
2023-03-17T13:09:46.943Z,3.70
2023-03-17T13:12:42.092Z,3.42
2023-03-17T13:15:28.184Z,3.27
2023-03-17T13:18:15.356Z,4.25
2023-03-17T13:21:13.767Z,4.53
2023-03-17T13:23:54.993Z,4.95
2023-03-17T13:26:55.063Z,5.32
2023-03-17T13:29:34.108Z,4.37
2023-03-17T13:32:15.784Z,3.80
2023-03-17T13:34:55.659Z,4.95
2023-03-17T13:37:31.239Z,3.58
2023-03-17T13:40:13.512Z,4.85
2023-03-17T13:43:13.861Z,3.90
2023-03-17T13:45:43.907Z,3.78
2023-03-17T13:48:36.560Z,4.53
2023-03-17T13:51:17.298Z,4.40
2023-03-17T13:54:08.262Z,4.53
2023-03-17T13:56:37.458Z,3.63
2023-03-17T13:59:15.089Z,6.60
2023-03-17T14:01:49.054Z,4.03
2023-03-17T14:04:31.124Z,5.30
2023-03-17T14:07:04.705Z,6.72
2023-03-17T14:09:42.333Z,4.27
2023-03-17T14:12:19.627Z,3.20
2023-03-17T14:15:17.349Z,4.15
2023-03-17T14:17:50.259Z,5.72
2023-03-17T14:20:27.755Z,5.10
2023-03-17T14:23:01.334Z,6.28
2023-03-17T14:25:34.975Z,5.57
2023-03-17T14:28:05.921Z,5.15
2023-03-17T14:30:34.800Z,5.85
2023-03-17T14:33:29.955Z,7.72
2023-03-17T14:36:00.095Z,6.95
2023-03-17T14:38:32.516Z,9.20
2023-03-17T14:41:01.189Z,7.53
2023-03-17T14:43:27.888Z,9.02
2023-03-17T14:46:04.085Z,9.38
2023-03-17T14:48:40.335Z,10.65
2023-03-17T14:51:30.493Z,8.83
2023-03-17T14:54:01.150Z,12.02
2023-03-17T14:56:40.975Z,10.77
2023-03-17T14:59:56.369Z,9.65
2023-03-17T15:02:24.534Z,9.70
2023-03-17T15:05:06.642Z,10.63
2023-03-17T15:07:39.852Z,11.70
2023-03-17T15:10:15.716Z,9.35
2023-03-17T15:12:43.232Z,9.38
2023-03-17T15:15:27.450Z,8.70
2023-03-17T15:17:58.832Z,8.63
2023-03-17T15:20:25.911Z,8.52
2023-03-17T15:22:57.122Z,10.00
2023-03-17T15:25:37.507Z,8.05
2023-03-17T15:28:16.043Z,7.78
2023-03-17T15:30:48.693Z,8.03
2023-03-17T15:33:32.174Z,11.57
2023-03-17T15:36:01.951Z,7.75
2023-03-17T15:38:29.435Z,8.00
2023-03-17T15:40:56.350Z,7.07
2023-03-17T15:43:23.568Z,7.03
2023-03-17T15:46:08.715Z,6.63
2023-03-17T15:48:36.667Z,8.05
2023-03-17T15:51:05.269Z,10.07
2023-03-17T15:53:32.224Z,9.48
2023-03-17T15:55:59.164Z,8.20
2023-03-17T15:58:26.138Z,7.65
2023-03-17T16:00:57.037Z,9.60
2023-03-17T16:03:33.303Z,7.90
2023-03-17T16:06:01.852Z,9.13
2023-03-17T16:08:28.886Z,9.37
2023-03-17T16:10:58.775Z,8.65
2023-03-17T16:13:25.434Z,8.30
2023-03-17T16:15:57.623Z,7.03
2023-03-17T16:18:32.869Z,10.40
2023-03-17T16:21:00.880Z,8.43
2023-03-17T16:23:31.666Z,9.05
2023-03-17T16:26:11.728Z,8.50
2023-03-17T16:28:41.390Z,8.32
2023-03-17T16:31:34.502Z,7.82
2023-03-17T16:34:01.539Z,7.23
2023-03-17T16:36:28.241Z,11.38
2023-03-17T16:38:54.952Z,7.15
2023-03-17T16:41:24.443Z,8.10
2023-03-17T16:43:58.926Z,9.85
2023-03-17T16:46:26.546Z,10.03
2023-03-17T16:48:53.590Z,8.43
2023-03-17T16:51:20.371Z,12.38
2023-03-17T16:53:47.063Z,9.15
2023-03-17T16:56:17.700Z,9.40
2023-03-17T16:58:45.602Z,11.30
2023-03-17T17:01:21.918Z,10.02
2023-03-17T17:03:48.982Z,11.80
2023-03-17T17:06:16.229Z,9.02
2023-03-17T17:08:43.916Z,8.85
2023-03-17T17:11:13.103Z,11.97
2023-03-17T17:13:44.527Z,8.50
2023-03-17T17:16:17.457Z,10.30
2023-03-17T17:18:44.166Z,8.95
2023-03-17T17:21:11.094Z,10.55
2023-03-17T17:23:37.812Z,8.10
2023-03-17T17:26:04.542Z,9.45
2023-03-17T17:28:31.778Z,8.68
2023-03-17T17:30:59.700Z,8.70
2023-03-17T17:33:27.107Z,8.40
2023-03-17T17:35:53.858Z,8.57
2023-03-17T17:38:29.027Z,12.63
2023-03-17T17:40:58.200Z,8.68
2023-03-17T17:43:25.431Z,11.35
2023-03-17T17:45:52.476Z,6.53
2023-03-17T17:48:22.630Z,9.23
2023-03-17T17:50:51.256Z,7.10
2023-03-17T17:53:18.847Z,7.30
2023-03-17T17:55:47.722Z,8.82
2023-03-17T17:58:24.099Z,8.25
2023-03-17T18:00:51.596Z,12.07
2023-03-17T18:03:22.239Z,16.67
2023-03-17T18:05:49.026Z,18.75
2023-03-17T18:08:15.908Z,16.48
2023-03-17T18:10:42.755Z,14.93
2023-03-17T18:13:09.589Z,13.80
2023-03-17T18:15:36.282Z,27.10
2023-03-17T18:18:02.931Z,17.42
2023-03-17T18:20:30.515Z,14.32
2023-03-17T18:22:57.779Z,12.88
2023-03-17T18:25:28.033Z,12.97
2023-03-17T18:27:55.063Z,16.67
2023-03-17T18:30:26.099Z,28.70
2023-03-17T18:33:00.537Z,54.72
2023-03-17T18:35:29.215Z,60.28
2023-03-17T18:37:57.660Z,85.20
2023-03-17T18:40:25.683Z,67.40
2023-03-17T18:42:52.383Z,54.65
2023-03-17T18:45:19.424Z,39.25
2023-03-17T18:47:46.209Z,27.00
2023-03-17T18:50:15.589Z,57.27
2023-03-17T18:52:43.834Z,49.15
2023-03-17T18:55:12.336Z,46.75
2023-03-17T18:57:39.542Z,35.38
2023-03-17T19:00:09.762Z,30.10
2023-03-17T19:02:37.933Z,19.60
2023-03-17T19:05:06.186Z,15.75
2023-03-17T19:07:33.373Z,13.00
2023-03-17T19:10:00.320Z,16.95
2023-03-17T19:12:27.011Z,19.17
2023-03-17T19:14:53.694Z,23.17
2023-03-17T19:17:20.336Z,24.73
2023-03-17T19:19:47.168Z,24.17
2023-03-17T19:22:14.139Z,24.48
2023-03-17T19:24:41.152Z,15.65
2023-03-17T19:27:08.009Z,15.53
2023-03-17T19:29:34.693Z,17.08
2023-03-17T19:32:02.338Z,16.58
2023-03-17T19:34:29.160Z,18.17
2023-03-17T19:36:56.064Z,17.98
2023-03-17T19:39:22.997Z,16.10
2023-03-17T19:41:53.221Z,15.55
2023-03-17T19:44:19.977Z,12.70
2023-03-17T19:46:46.641Z,14.30
2023-03-17T19:49:13.600Z,17.83
2023-03-17T19:51:41.881Z,15.73
2023-03-17T19:54:09.990Z,18.38
2023-03-17T19:56:38.375Z,22.40
2023-03-17T19:59:06.297Z,21.15
2023-03-17T20:01:33.136Z,19.00
2023-03-17T20:03:59.850Z,18.27
2023-03-17T20:06:27.241Z,17.98
2023-03-17T20:08:54.189Z,21.88
2023-03-17T20:11:21.085Z,26.38
2023-03-17T20:13:47.771Z,25.10
2023-03-17T20:16:14.512Z,27.77
2023-03-17T20:18:41.287Z,25.63
2023-03-17T20:21:12.711Z,28.35
2023-03-17T20:23:39.496Z,25.23
2023-03-17T20:26:06.918Z,24.30
2023-03-17T20:28:33.971Z,33.53
2023-03-17T20:31:02.629Z,43.88
2023-03-17T20:33:29.479Z,33.42
2023-03-17T20:35:56.569Z,27.02
2023-03-17T20:38:23.626Z,28.45
2023-03-17T20:40:50.300Z,28.53
2023-03-17T20:43:17.268Z,30.42
2023-03-17T20:45:44.060Z,24.55
2023-03-17T20:48:11.275Z,25.13
2023-03-17T20:50:39.233Z,30.80
2023-03-17T20:53:06.072Z,29.43
2023-03-17T20:55:32.875Z,31.40
2023-03-17T20:57:59.847Z,32.85
2023-03-17T21:00:30.142Z,28.63
2023-03-17T21:02:57.178Z,31.30
2023-03-17T21:05:26.529Z,25.80
2023-03-17T21:07:53.470Z,23.65
2023-03-17T21:10:20.626Z,20.73
2023-03-17T21:12:48.139Z,20.85
2023-03-17T21:15:15.645Z,18.65
2023-03-17T21:17:43.050Z,17.87
2023-03-17T21:20:12.402Z,16.00
2023-03-17T21:22:39.995Z,19.27
2023-03-17T21:25:08.773Z,20.55
2023-03-17T21:27:37.694Z,18.65
2023-03-17T21:30:12.003Z,24.13
2023-03-17T21:32:40.345Z,23.38
2023-03-17T21:35:08.561Z,23.38
2023-03-17T21:37:35.540Z,29.95
2023-03-17T21:40:02.255Z,30.58
2023-03-17T21:42:29.096Z,25.70
2023-03-17T21:44:55.799Z,22.67
2023-03-17T21:47:22.505Z,25.63
2023-03-17T21:49:49.173Z,22.27
2023-03-17T21:52:15.926Z,20.33
2023-03-17T21:54:42.657Z,18.33
2023-03-17T21:57:11.757Z,18.90
2023-03-17T21:59:38.688Z,16.83
2023-03-17T22:02:05.914Z,16.90
2023-03-17T22:04:32.660Z,14.95
2023-03-17T22:06:59.426Z,21.20
2023-03-17T22:09:26.241Z,19.73
2023-03-17T22:11:53.078Z,23.40
2023-03-17T22:14:20.714Z,22.00
2023-03-17T22:16:49.337Z,20.30
2023-03-17T22:19:18.204Z,14.77
2023-03-17T22:21:45.952Z,16.90
2023-03-17T22:24:12.638Z,14.80
2023-03-17T22:26:39.399Z,16.48
2023-03-17T22:29:06.176Z,14.68
2023-03-17T22:31:34.729Z,17.67
2023-03-17T22:34:02.252Z,14.90
2023-03-17T22:36:29.766Z,13.05
2023-03-17T22:38:57.145Z,15.50
2023-03-17T22:41:27.014Z,16.05
2023-03-17T22:43:54.208Z,15.03
2023-03-17T22:46:21.705Z,13.68
2023-03-17T22:48:49.130Z,13.73
2023-03-17T22:51:18.428Z,14.80
2023-03-17T22:53:45.582Z,15.48
2023-03-17T22:56:14.046Z,16.80
2023-03-17T22:58:41.052Z,15.50
2023-03-17T23:01:09.015Z,18.13
2023-03-17T23:03:36.025Z,15.75
2023-03-17T23:06:04.362Z,21.77
2023-03-17T23:08:35.222Z,26.67
2023-03-17T23:11:06.122Z,30.70
2023-03-17T23:13:33.167Z,27.55
2023-03-17T23:15:59.871Z,24.40
2023-03-17T23:18:26.627Z,19.88
2023-03-17T23:20:53.466Z,20.60
2023-03-17T23:23:20.119Z,20.85
2023-03-17T23:25:47.048Z,17.15
2023-03-17T23:28:15.508Z,18.50
2023-03-17T23:30:43.796Z,17.58
2023-03-17T23:33:10.611Z,23.77
2023-03-17T23:35:37.979Z,45.95
2023-03-17T23:38:04.681Z,34.05
2023-03-17T23:40:32.739Z,23.25
2023-03-17T23:42:59.873Z,33.40
2023-03-17T23:45:26.616Z,32.93
2023-03-17T23:47:55.217Z,26.48
2023-03-17T23:50:21.899Z,19.45
2023-03-17T23:52:49.334Z,19.20
2023-03-17T23:55:16.773Z,19.65
2023-03-17T23:57:44.246Z,20.23
